KSDM/SDM METAR and TAF weather

Enter ICAO airport designator
Station Type Date Time Source
KSDM METAR 2019/12/12 16:53 UTC NOAA

KSDM 121653Z 15005KT 9SM CLR 14/07 A3024 RMK AO2 SLP237 T01440072


Station Type Date Time Source
KSDM Decoded METAR 2019/12/12 16:53 UTC NOAA

San Diego, Brown Field Municipal Airport, CA, United States (KSDM) 32-34-31N 116-59-35W 159M
Dec 12, 2019 - 11:53 AM EST / 2019.12.12 1653 UTC
Wind: from the SSE (150 degrees) at 6 MPH (5 KT):0
Visibility: 9 mile(s):0
Sky conditions: clear
Temperature: 57.9 F (14.4 C)
Dew Point: 45.0 F (7.2 C)
Relative Humidity: 61%
Pressure (altimeter): 30.24 in. Hg (1024 hPa)
ob: KSDM 121653Z 15005KT 9SM CLR 14/07 A3024 RMK AO2 SLP237 T01440072
cycle: 17

Station Type Date Time Source
KSDM TAF UTC NOAA

Error!

Example: see airport list